Time;durP1;ratioP1;P1;durP2;ratioP2;P2;SDS_P1;SDS_P2;PMS_P1;PMS_P2;Temp;Humidity;BMP_temperature;BMP_pressure;BME280_temperature;BME280_humidity;BME280_pressure;Samples;Min_cycle;Max_cycle;Signal;HPM_P1;HPM_P2
2021/05/02 00:00:40;;;;;;;19.55;13.18;;;4.60;99.90;;;;;;2087172;28;20272;-70
2021/05/02 00:01:43;;;;;;;16.97;12.33;;;4.60;99.90;;;;;;2089545;28;20594;-69
2021/05/02 00:02:44;;;;;;;18.90;13.73;;;4.60;99.90;;;;;;2090461;28;20646;-70
2021/05/02 00:03:45;;;;;;;20.60;14.65;;;4.60;99.90;;;;;;2089746;28;20261;-70
2021/05/02 00:04:46;;;;;;;20.37;14.40;;;4.60;99.90;;;;;;2081722;28;20840;-69
2021/05/02 00:05:47;;;;;;;23.53;16.57;;;4.70;99.90;;;;;;2089776;28;20195;-69
2021/05/02 00:06:48;;;;;;;21.40;15.77;;;4.60;99.90;;;;;;2089883;28;20207;-70
2021/05/02 00:07:49;;;;;;;22.30;15.18;;;4.60;99.90;;;;;;2081514;28;20177;-70
2021/05/02 00:08:50;;;;;;;24.42;15.07;;;4.50;99.90;;;;;;2092817;28;20216;-69
2021/05/02 00:09:51;;;;;;;24.73;17.10;;;4.50;99.90;;;;;;2095009;28;20587;-69
2021/05/02 00:10:51;;;;;;;25.23;16.53;;;4.50;99.90;;;;;;2093750;28;20526;-69
2021/05/02 00:11:52;;;;;;;22.07;15.33;;;4.50;99.90;;;;;;2092999;28;20188;-69
2021/05/02 00:12:54;;;;;;;25.33;16.60;;;4.50;99.90;;;;;;2092701;28;20183;-70
2021/05/02 00:13:54;;;;;;;22.77;16.67;;;4.60;99.90;;;;;;2090106;28;20185;-69
2021/05/02 00:14:55;;;;;;;25.50;17.23;;;4.50;99.90;;;;;;2089874;28;20185;-69
2021/05/02 00:15:56;;;;;;;24.77;17.27;;;4.50;99.90;;;;;;2089029;28;20198;-69
2021/05/02 00:16:57;;;;;;;23.87;16.67;;;4.50;99.90;;;;;;2090170;28;20269;-69
2021/05/02 00:17:58;;;;;;;28.33;19.07;;;4.60;99.90;;;;;;2089876;28;20319;-69
2021/05/02 00:18:59;;;;;;;24.58;17.25;;;4.60;99.90;;;;;;2090379;28;20610;-69
2021/05/02 00:20:00;;;;;;;25.33;17.65;;;4.60;99.90;;;;;;2098078;28;20620;-70
2021/05/02 00:21:06;;;;;;;24.20;16.93;;;4.60;99.90;;;;;;2089716;28;20175;-69
2021/05/02 00:22:07;;;;;;;24.52;16.67;;;4.60;99.90;;;;;;2089593;28;20168;-69
2021/05/02 00:23:07;;;;;;;26.73;17.83;;;4.70;99.90;;;;;;2089823;28;20191;-70
2021/05/02 00:24:09;;;;;;;25.07;17.60;;;4.60;99.90;;;;;;2089920;28;20181;-70
2021/05/02 00:25:12;;;;;;;24.08;15.95;;;4.60;99.90;;;;;;2089637;28;20265;-70
2021/05/02 00:26:13;;;;;;;24.23;16.98;;;4.60;99.90;;;;;;2089781;28;20177;-70
2021/05/02 00:27:14;;;;;;;25.90;17.47;;;4.60;99.90;;;;;;2090569;28;20818;-70
2021/05/02 00:28:15;;;;;;;27.88;17.50;;;4.60;99.90;;;;;;2090512;28;20708;-70
2021/05/02 00:29:17;;;;;;;23.52;15.73;;;4.60;99.90;;;;;;2090671;28;20188;-70
2021/05/02 00:30:22;;;;;;;26.92;17.73;;;4.60;99.90;;;;;;2089867;28;20214;-70
2021/05/02 00:31:24;;;;;;;18.00;13.77;;;4.60;99.90;;;;;;2081934;28;20273;-69
2021/05/02 00:32:26;;;;;;;20.02;14.20;;;4.60;99.90;;;;;;2089701;28;20182;-70
2021/05/02 00:33:27;;;;;;;19.27;14.40;;;4.50;99.90;;;;;;2090180;28;20189;-69
2021/05/02 00:34:29;;;;;;;19.67;14.52;;;4.50;99.90;;;;;;2081433;28;20179;-70
2021/05/02 00:35:30;;;;;;;20.73;14.70;;;4.40;99.90;;;;;;2089639;28;20627;-69
2021/05/02 00:36:31;;;;;;;22.73;15.25;;;4.40;99.90;;;;;;2098133;28;20195;-69
2021/05/02 00:37:32;;;;;;;23.38;15.75;;;4.40;99.90;;;;;;2089603;28;20742;-70
2021/05/02 00:38:41;;;;;;;24.35;16.38;;;4.40;99.90;;;;;;2081327;28;20322;-69
2021/05/02 00:39:42;;;;;;;25.42;17.10;;;4.50;99.90;;;;;;2082483;28;20756;-69
2021/05/02 00:40:43;;;;;;;24.67;17.23;;;4.40;99.90;;;;;;2089875;28;20303;-69
2021/05/02 00:41:47;;;;;;;24.83;18.08;;;4.40;99.90;;;;;;2089268;28;20439;-70
2021/05/02 00:42:52;;;;;;;26.15;18.17;;;4.40;99.90;;;;;;2089685;28;20218;-70
2021/05/02 00:44:26;;;;;;;22.70;17.63;;;4.40;99.90;;;;;;2098009;28;20192;-70
2021/05/02 00:45:39;;;;;;;28.33;18.48;;;4.40;99.90;;;;;;2093339;28;20705;-70
2021/05/02 00:47:10;;;;;;;28.42;19.45;;;4.40;99.90;;;;;;2083171;28;20162;-69
2021/05/02 00:48:23;;;;;;;26.45;18.52;;;4.40;99.90;;;;;;2090019;28;20258;-69
2021/05/02 00:49:32;;;;;;;29.40;20.08;;;4.40;99.90;;;;;;2097858;28;20241;-70
2021/05/02 00:50:39;;;;;;;30.38;20.23;;;4.40;99.90;;;;;;2097949;28;20169;-69
2021/05/02 00:51:43;;;;;;;29.60;19.45;;;4.40;99.90;;;;;;2096941;28;20189;-69
2021/05/02 00:52:51;;;;;;;31.95;21.40;;;4.40;99.90;;;;;;2089665;28;20190;-69
2021/05/02 00:54:14;;;;;;;32.50;20.48;;;4.40;99.90;;;;;;2089802;28;20273;-69
2021/05/02 00:55:47;;;;;;;32.60;20.80;;;4.40;99.90;;;;;;2089953;28;20244;-69
2021/05/02 00:57:06;;;;;;;29.45;20.45;;;4.40;99.90;;;;;;2090263;28;20177;-70
2021/05/02 00:58:15;;;;;;;32.97;21.85;;;4.40;99.90;;;;;;2090224;28;20208;-70
2021/05/02 00:59:22;;;;;;;35.08;22.58;;;4.30;99.90;;;;;;2089663;28;20545;-69
2021/05/02 01:00:26;;;;;;;33.22;22.20;;;4.30;99.90;;;;;;2082020;28;20241;-69
2021/05/02 01:01:39;;;;;;;33.53;22.75;;;4.30;99.90;;;;;;2072610;28;20193;-69
2021/05/02 01:02:41;;;;;;;33.75;22.73;;;4.30;99.90;;;;;;2090598;28;20291;-69
2021/05/02 01:03:46;;;;;;;31.08;22.38;;;4.30;99.90;;;;;;2097688;28;20684;-71
2021/05/02 01:04:47;;;;;;;33.13;22.95;;;4.20;99.90;;;;;;2097678;28;20654;-69
2021/05/02 01:05:48;;;;;;;37.20;24.00;;;4.20;99.90;;;;;;2097587;28;20222;-69
2021/05/02 01:06:51;;;;;;;34.72;25.00;;;4.20;99.90;;;;;;2081066;28;20213;-69
2021/05/02 01:07:56;;;;;;;39.92;25.90;;;4.10;99.90;;;;;;2089588;28;20184;-69
2021/05/02 01:09:01;;;;;;;38.45;24.70;;;4.10;99.90;;;;;;2097234;28;20165;-69
2021/05/02 01:10:12;;;;;;;33.35;23.00;;;4.10;99.90;;;;;;2090027;28;20190;-69
2021/05/02 01:11:15;;;;;;;38.08;25.05;;;4.20;99.90;;;;;;2090003;28;20651;-69
2021/05/02 01:12:19;;;;;;;43.83;26.42;;;4.20;99.90;;;;;;2089259;28;20806;-69
2021/05/02 01:13:21;;;;;;;37.88;25.13;;;4.10;99.90;;;;;;2097618;28;20184;-69
2021/05/02 01:14:23;;;;;;;36.28;24.95;;;4.10;99.90;;;;;;2097351;28;20750;-70
2021/05/02 01:15:33;;;;;;;34.45;24.92;;;4.20;99.90;;;;;;2081164;28;20203;-69
2021/05/02 01:16:36;;;;;;;39.22;25.70;;;4.10;99.90;;;;;;2089311;28;20197;-69
2021/05/02 01:17:43;;;;;;;38.20;25.45;;;4.20;99.90;;;;;;2089024;28;20186;-69
2021/05/02 01:18:43;;;;;;;39.55;26.15;;;4.20;99.90;;;;;;2089239;28;20182;-69
2021/05/02 01:19:48;;;;;;;39.43;25.87;;;4.20;99.90;;;;;;2089322;28;20267;-69
2021/05/02 01:20:49;;;;;;;39.97;26.42;;;4.20;99.90;;;;;;2081240;28;20257;-69
2021/05/02 01:21:50;;;;;;;38.30;27.20;;;4.20;99.90;;;;;;2089056;28;20180;-69
2021/05/02 01:22:52;;;;;;;41.00;26.90;;;4.20;99.90;;;;;;2089210;28;20265;-69
2021/05/02 01:23:53;;;;;;;47.58;27.67;;;4.30;99.90;;;;;;2081298;28;20572;-69
2021/05/02 01:24:53;;;;;;;43.77;27.80;;;4.20;99.90;;;;;;2089160;28;20213;-69
2021/05/02 01:26:00;;;;;;;41.73;26.30;;;4.20;99.90;;;;;;2089715;28;20303;-69
2021/05/02 01:27:01;;;;;;;37.92;25.77;;;4.20;99.90;;;;;;2097430;28;20255;-69
2021/05/02 01:28:04;;;;;;;43.57;28.53;;;4.30;99.90;;;;;;2097410;28;20171;-69
2021/05/02 01:29:05;;;;;;;47.80;28.02;;;4.30;99.90;;;;;;2089015;28;20423;-70
2021/05/02 01:30:11;;;;;;;45.15;28.00;;;4.30;99.90;;;;;;2089163;28;20597;-69
2021/05/02 01:31:12;;;;;;;40.60;26.70;;;4.30;99.90;;;;;;2089043;28;20639;-69
2021/05/02 01:32:13;;;;;;;41.57;27.70;;;4.30;99.90;;;;;;2081043;28;20174;-69
2021/05/02 01:33:15;;;;;;;44.10;27.27;;;4.40;99.90;;;;;;2089194;28;20532;-70
2021/05/02 01:34:16;;;;;;;42.10;28.05;;;4.40;99.90;;;;;;2089084;28;20177;-69
2021/05/02 01:35:18;;;;;;;39.33;26.63;;;4.40;99.90;;;;;;2089142;28;20240;-69
2021/05/02 01:36:19;;;;;;;43.25;28.60;;;4.30;99.90;;;;;;2089268;28;20706;-69
2021/05/02 01:37:21;;;;;;;44.70;29.48;;;4.30;99.90;;;;;;2080730;28;20186;-69
2021/05/02 01:38:23;;;;;;;50.25;30.52;;;4.30;99.90;;;;;;2089148;28;20628;-69
2021/05/02 01:39:24;;;;;;;43.00;28.63;;;4.30;99.90;;;;;;2089504;28;20243;-69
2021/05/02 01:40:25;;;;;;;44.05;28.33;;;4.30;99.90;;;;;;2080933;28;20741;-70
2021/05/02 01:41:26;;;;;;;44.87;29.27;;;4.30;99.90;;;;;;2080593;28;20182;-70
2021/05/02 01:42:27;;;;;;;45.03;28.60;;;4.30;99.90;;;;;;2097272;28;20181;-69
2021/05/02 01:43:27;;;;;;;43.93;29.03;;;4.30;99.90;;;;;;2097198;28;20173;-70
2021/05/02 01:44:28;;;;;;;41.97;28.30;;;4.30;99.90;;;;;;2089653;28;20201;-70
2021/05/02 01:45:29;;;;;;;38.30;26.77;;;4.30;99.90;;;;;;2089448;28;20216;-70
2021/05/02 01:46:36;;;;;;;39.35;28.15;;;4.30;99.90;;;;;;2089657;28;20324;-70
2021/05/02 01:47:46;;;;;;;40.75;27.08;;;4.30;99.90;;;;;;2097353;28;20171;-70
2021/05/02 01:48:47;;;;;;;41.58;28.25;;;4.30;99.90;;;;;;2096083;28;20194;-70
2021/05/02 01:50:04;;;;;;;47.77;30.47;;;4.30;99.90;;;;;;2072579;28;20188;-70
2021/05/02 01:51:08;;;;;;;44.13;28.52;;;4.20;99.90;;;;;;2082693;28;20171;-70
2021/05/02 01:52:10;;;;;;;41.65;27.77;;;4.20;99.90;;;;;;2081178;28;20243;-70
2021/05/02 01:53:12;;;;;;;39.67;27.38;;;4.20;99.90;;;;;;2089070;28;20206;-70
2021/05/02 01:54:14;;;;;;;42.00;28.20;;;4.20;99.90;;;;;;2089614;28;20551;-70
2021/05/02 01:55:17;;;;;;;46.38;29.02;;;4.20;99.90;;;;;;2089619;28;20227;-70
2021/05/02 01:56:20;;;;;;;42.22;29.40;;;4.20;99.90;;;;;;2097200;28;20173;-70
2021/05/02 01:57:29;;;;;;;44.30;28.65;;;4.10;99.90;;;;;;2089135;28;20184;-70
2021/05/02 01:58:32;;;;;;;43.80;28.80;;;4.10;99.90;;;;;;2081834;28;20233;-70
2021/05/02 01:59:34;;;;;;;42.67;27.20;;;4.10;99.90;;;;;;2081108;28;20255;-70
2021/05/02 02:00:50;;;;;;;43.40;28.42;;;4.10;99.90;;;;;;2088976;28;20643;-70
2021/05/02 02:01:51;;;;;;;40.13;27.52;;;4.10;99.90;;;;;;2088699;28;20178;-70
2021/05/02 02:02:53;;;;;;;41.42;27.80;;;4.10;99.90;;;;;;2088703;28;20212;-71
2021/05/02 02:03:56;;;;;;;41.38;27.65;;;4.00;99.90;;;;;;2089007;28;20177;-70
2021/05/02 02:04:58;;;;;;;38.80;25.67;;;4.00;99.90;;;;;;2089038;28;20194;-70
2021/05/02 02:06:00;;;;;;;43.28;28.48;;;4.00;99.90;;;;;;2089462;28;20271;-70
2021/05/02 02:07:01;;;;;;;45.53;29.95;;;4.00;99.90;;;;;;2088894;28;20185;-70
2021/05/02 02:08:04;;;;;;;43.37;28.73;;;4.00;99.90;;;;;;2080726;28;20325;-70
2021/05/02 02:09:08;;;;;;;41.63;28.95;;;4.00;99.90;;;;;;2091214;28;20203;-69
2021/05/02 02:10:10;;;;;;;44.22;29.13;;;4.00;99.90;;;;;;2089595;28;20185;-69
2021/05/02 02:11:11;;;;;;;45.15;28.90;;;4.10;99.90;;;;;;2088662;28;20181;-69
2021/05/02 02:12:12;;;;;;;43.90;29.90;;;4.10;99.90;;;;;;2088740;28;20173;-69
2021/05/02 02:13:16;;;;;;;44.77;29.73;;;4.10;99.90;;;;;;2089125;28;20176;-69
2021/05/02 02:14:17;;;;;;;45.42;29.30;;;4.10;99.90;;;;;;2088813;28;20212;-70
2021/05/02 02:15:20;;;;;;;44.30;29.83;;;4.10;99.90;;;;;;2088838;28;20188;-70
2021/05/02 02:16:22;;;;;;;46.70;29.90;;;4.10;99.90;;;;;;2088902;28;20204;-70
2021/05/02 02:17:23;;;;;;;46.63;29.25;;;4.10;99.90;;;;;;2072480;28;20195;-70
2021/05/02 02:18:24;;;;;;;45.42;28.98;;;4.10;99.90;;;;;;2080508;28;20231;-70
2021/05/02 02:19:25;;;;;;;43.00;28.47;;;4.10;99.90;;;;;;2086828;28;20178;-70
2021/05/02 02:20:28;;;;;;;44.20;28.10;;;4.10;99.90;;;;;;2089481;28;20177;-69
2021/05/02 02:21:29;;;;;;;48.75;31.13;;;4.10;99.90;;;;;;2094421;28;20248;-70
2021/05/02 02:22:37;;;;;;;46.83;30.83;;;4.10;99.90;;;;;;2088826;28;20187;-70
2021/05/02 02:23:41;;;;;;;48.33;30.05;;;4.10;99.90;;;;;;2081271;28;20171;-70
2021/05/02 02:24:59;;;;;;;48.70;31.45;;;4.00;99.90;;;;;;2088663;28;20680;-70
2021/05/02 02:26:28;;;;;;;52.15;31.25;;;4.00;99.90;;;;;;2088756;28;20197;-70
2021/05/02 02:27:31;;;;;;;53.22;30.33;;;4.00;99.90;;;;;;2088808;28;20182;-70
2021/05/02 02:28:35;;;;;;;46.22;30.63;;;4.00;99.90;;;;;;2089158;28;20197;-70
2021/05/02 02:29:42;;;;;;;47.80;30.90;;;4.00;99.90;;;;;;2088712;28;20178;-69
2021/05/02 02:30:50;;;;;;;42.42;28.50;;;4.00;99.90;;;;;;2088886;28;20196;-70
2021/05/02 02:31:52;;;;;;;46.58;30.35;;;4.00;99.90;;;;;;2088313;28;20224;-70
2021/05/02 02:32:55;;;;;;;47.30;30.95;;;4.00;99.90;;;;;;2088771;28;20214;-70
2021/05/02 02:33:58;;;;;;;50.00;32.50;;;3.90;99.90;;;;;;2088973;28;20201;-70
2021/05/02 02:34:59;;;;;;;48.55;30.98;;;4.00;99.90;;;;;;2089288;28;20182;-70
2021/05/02 02:36:01;;;;;;;50.17;30.75;;;3.90;99.90;;;;;;2089216;28;20189;-70
2021/05/02 02:37:02;;;;;;;48.58;31.30;;;4.00;99.90;;;;;;2089304;28;20179;-70
2021/05/02 02:38:05;;;;;;;44.27;29.03;;;3.90;99.90;;;;;;2089182;28;20188;-70
2021/05/02 02:39:06;;;;;;;44.47;29.27;;;3.90;99.90;;;;;;2088569;28;20416;-69
2021/05/02 02:40:08;;;;;;;42.90;29.90;;;3.90;99.90;;;;;;2088588;28;20185;-70
2021/05/02 02:41:17;;;;;;;45.65;29.92;;;4.00;99.90;;;;;;2088538;28;20212;-69
2021/05/02 02:42:21;;;;;;;43.72;28.20;;;4.00;99.90;;;;;;2081319;28;20181;-70
2021/05/02 02:43:25;;;;;;;46.13;29.75;;;3.90;99.90;;;;;;2088695;28;20173;-70
2021/05/02 02:44:28;;;;;;;47.25;30.67;;;4.00;99.90;;;;;;2088990;28;20609;-70
2021/05/02 02:45:34;;;;;;;43.03;29.63;;;4.00;99.90;;;;;;2089261;28;20280;-73
2021/05/02 02:46:43;;;;;;;41.08;28.17;;;4.00;99.90;;;;;;2089134;28;20637;-70
2021/05/02 02:47:54;;;;;;;42.15;28.65;;;4.00;99.90;;;;;;2088643;28;20192;-69
2021/05/02 02:48:58;;;;;;;40.83;27.25;;;4.00;99.90;;;;;;2081533;28;20550;-69
2021/05/02 02:50:01;;;;;;;39.03;27.20;;;4.00;99.90;;;;;;2080658;28;20191;-69
2021/05/02 02:51:04;;;;;;;39.80;27.15;;;4.00;99.90;;;;;;2080563;28;20182;-70
2021/05/02 02:52:08;;;;;;;35.80;25.20;;;4.00;99.90;;;;;;2080254;28;20192;-69
2021/05/02 02:53:12;;;;;;;41.08;27.42;;;4.00;99.90;;;;;;2080718;28;20182;-69
2021/05/02 02:54:16;;;;;;;41.22;28.98;;;4.00;99.90;;;;;;2088511;28;20181;-70
2021/05/02 02:55:25;;;;;;;42.45;29.02;;;4.00;99.90;;;;;;2088787;28;20186;-69
2021/05/02 02:56:29;;;;;;;41.55;27.52;;;4.00;99.90;;;;;;2088415;28;20203;-70
2021/05/02 02:57:38;;;;;;;42.78;28.77;;;4.00;99.90;;;;;;2080662;28;20186;-70
2021/05/02 02:59:03;;;;;;;35.83;25.38;;;3.90;99.90;;;;;;2088431;28;20301;-70
2021/05/02 03:00:06;;;;;;;36.47;25.10;;;3.90;99.90;;;;;;2083817;28;20170;-70
2021/05/02 03:01:10;;;;;;;36.08;25.35;;;3.90;99.90;;;;;;2088311;28;20209;-70
2021/05/02 03:02:13;;;;;;;37.08;25.00;;;4.00;99.90;;;;;;2088402;28;20692;-70
2021/05/02 03:03:19;;;;;;;38.50;25.98;;;4.00;99.90;;;;;;2080515;28;20225;-69
2021/05/02 03:04:24;;;;;;;38.13;26.73;;;3.90;99.90;;;;;;2081029;28;20190;-70
2021/05/02 03:05:25;;;;;;;36.85;25.95;;;4.00;99.90;;;;;;2072459;28;20200;-69
2021/05/02 03:06:28;;;;;;;36.97;25.70;;;4.00;99.90;;;;;;2080290;28;20245;-69
2021/05/02 03:07:32;;;;;;;37.05;26.00;;;4.00;99.90;;;;;;2080081;28;20286;-69
2021/05/02 03:08:38;;;;;;;36.90;26.35;;;4.00;99.90;;;;;;2081112;28;20258;-69
2021/05/02 03:09:44;;;;;;;36.15;24.98;;;3.90;99.90;;;;;;2095995;28;20205;-69
2021/05/02 03:10:47;;;;;;;38.47;26.20;;;3.90;99.90;;;;;;2088509;28;20201;-69
2021/05/02 03:11:48;;;;;;;40.70;26.83;;;3.90;99.90;;;;;;2081265;28;20180;-69
2021/05/02 03:12:50;;;;;;;38.03;26.53;;;4.00;99.90;;;;;;2091205;28;20695;-70
2021/05/02 03:13:53;;;;;;;39.25;27.23;;;4.00;99.90;;;;;;2090834;28;20185;-70
2021/05/02 03:14:55;;;;;;;40.28;27.08;;;3.90;99.90;;;;;;2091050;28;20180;-69
2021/05/02 03:15:59;;;;;;;42.38;27.88;;;4.00;99.90;;;;;;2091670;28;20886;-70
2021/05/02 03:17:03;;;;;;;41.85;28.30;;;4.00;99.90;;;;;;2089209;28;20190;-69
2021/05/02 03:18:07;;;;;;;38.00;26.88;;;4.00;99.90;;;;;;2080790;28;20269;-69
2021/05/02 03:19:10;;;;;;;36.65;26.02;;;4.00;99.90;;;;;;2072473;28;20194;-69
2021/05/02 03:20:14;;;;;;;43.15;28.35;;;4.00;99.90;;;;;;2080687;28;20185;-69
2021/05/02 03:21:22;;;;;;;45.40;28.42;;;4.00;99.90;;;;;;2088387;28;20592;-70
2021/05/02 03:22:55;;;;;;;41.78;27.17;;;4.00;99.90;;;;;;2088351;28;20174;-71
2021/05/02 03:23:58;;;;;;;41.05;26.42;;;4.00;99.90;;;;;;2088540;28;20240;-71
2021/05/02 03:25:01;;;;;;;40.97;27.70;;;4.00;99.90;;;;;;2080829;28;20182;-71
2021/05/02 03:26:09;;;;;;;41.00;27.60;;;4.00;99.90;;;;;;2090089;28;20648;-71
2021/05/02 03:27:26;;;;;;;36.40;25.60;;;4.10;99.90;;;;;;2090216;28;20173;-71
2021/05/02 03:28:46;;;;;;;40.03;26.67;;;4.10;99.90;;;;;;2084093;28;20192;-71
2021/05/02 03:29:48;;;;;;;37.63;25.80;;;4.00;99.90;;;;;;2084803;28;20168;-71
2021/05/02 03:30:48;;;;;;;37.67;25.90;;;4.00;99.90;;;;;;2090233;28;20720;-71
2021/05/02 03:31:54;;;;;;;46.77;29.83;;;4.00;99.90;;;;;;2090609;28;20182;-71
2021/05/02 03:32:57;;;;;;;47.97;29.88;;;4.00;99.90;;;;;;2090173;28;20181;-71
2021/05/02 03:34:05;;;;;;;44.13;29.17;;;4.00;99.90;;;;;;2082218;28;20310;-71
2021/05/02 03:35:08;;;;;;;47.38;31.42;;;4.00;99.90;;;;;;2082958;28;20684;-71
2021/05/02 03:36:11;;;;;;;49.70;29.83;;;4.00;99.90;;;;;;2090073;28;20609;-69
2021/05/02 03:37:19;;;;;;;45.08;29.75;;;4.00;99.90;;;;;;2090129;28;20177;-71
2021/05/02 03:38:31;;;;;;;43.80;29.10;;;4.10;99.90;;;;;;2082841;28;20256;-72
2021/05/02 03:39:31;;;;;;;40.40;27.63;;;4.00;99.90;;;;;;2075180;28;20662;-71
2021/05/02 03:40:32;;;;;;;45.33;30.43;;;4.00;99.90;;;;;;2081870;28;20222;-71
2021/05/02 03:41:34;;;;;;;42.27;27.47;;;4.00;99.90;;;;;;2089870;28;20253;-69
2021/05/02 03:42:35;;;;;;;44.30;28.25;;;4.00;99.90;;;;;;2081917;28;20445;-70
2021/05/02 03:43:37;;;;;;;46.27;29.80;;;4.00;99.90;;;;;;2090225;28;20179;-70
2021/05/02 03:44:38;;;;;;;41.80;28.13;;;4.00;99.90;;;;;;2089968;28;20251;-69
2021/05/02 03:45:39;;;;;;;40.10;28.63;;;4.00;99.90;;;;;;2090100;28;20291;-70
2021/05/02 03:46:39;;;;;;;43.97;28.73;;;4.00;99.90;;;;;;2090745;28;20551;-70
2021/05/02 03:47:40;;;;;;;45.50;30.10;;;4.00;99.90;;;;;;2089997;28;20225;-69
2021/05/02 03:48:41;;;;;;;47.50;30.90;;;3.90;99.90;;;;;;2090101;28;20181;-70
2021/05/02 03:49:41;;;;;;;46.47;30.80;;;3.90;99.90;;;;;;2090536;28;20177;-70
2021/05/02 03:50:42;;;;;;;44.37;29.00;;;3.90;99.90;;;;;;2090521;28;20211;-70
2021/05/02 03:51:43;;;;;;;36.37;25.23;;;3.90;99.90;;;;;;2090484;28;20181;-70
2021/05/02 03:52:43;;;;;;;38.17;26.90;;;3.90;99.90;;;;;;2090542;28;20668;-70
2021/05/02 03:53:44;;;;;;;41.23;27.73;;;3.90;99.90;;;;;;2090003;28;20259;-70
2021/05/02 03:54:45;;;;;;;40.60;28.00;;;3.90;99.90;;;;;;2089787;28;20223;-70
2021/05/02 03:55:47;;;;;;;41.73;28.67;;;3.90;99.90;;;;;;2089582;28;20247;-70
2021/05/02 03:56:48;;;;;;;45.42;29.85;;;3.90;99.90;;;;;;2081851;28;20348;-70
2021/05/02 03:57:49;;;;;;;38.50;27.13;;;3.90;99.90;;;;;;2081632;28;20799;-70
2021/05/02 03:58:50;;;;;;;40.37;26.13;;;3.90;99.90;;;;;;2090031;28;20183;-70
2021/05/02 03:59:50;;;;;;;39.60;26.93;;;3.90;99.90;;;;;;2089900;28;20342;-70
2021/05/02 04:00:51;;;;;;;42.17;27.93;;;3.80;99.90;;;;;;2089689;28;20181;-70
2021/05/02 04:01:56;;;;;;;33.60;23.87;;;3.90;99.90;;;;;;2090220;28;20497;-70
2021/05/02 04:02:57;;;;;;;38.20;24.20;;;3.90;99.90;;;;;;2089735;28;20997;-70
2021/05/02 04:03:59;;;;;;;33.80;22.97;;;3.80;99.90;;;;;;2089894;28;20246;-70
2021/05/02 04:05:00;;;;;;;35.88;24.63;;;3.80;99.90;;;;;;2090501;28;20185;-70
2021/05/02 04:06:00;;;;;;;28.43;21.37;;;3.90;99.90;;;;;;2090334;28;20176;-70
2021/05/02 04:07:06;;;;;;;35.23;24.33;;;3.90;99.90;;;;;;2090491;28;20196;-71
2021/05/02 04:08:07;;;;;;;39.50;26.40;;;3.90;99.90;;;;;;2089952;28;20152;-70
2021/05/02 04:09:11;;;;;;;38.50;25.87;;;3.90;99.90;;;;;;2089855;28;20190;-71
2021/05/02 04:10:11;;;;;;;39.22;25.92;;;3.90;99.90;;;;;;2089693;28;20192;-71
2021/05/02 04:11:12;;;;;;;38.40;25.83;;;3.90;99.90;;;;;;2089518;28;20175;-70
2021/05/02 04:12:13;;;;;;;35.87;24.57;;;3.90;99.90;;;;;;2091051;28;20174;-71
2021/05/02 04:13:14;;;;;;;30.92;22.35;;;3.90;99.90;;;;;;2092042;28;20179;-70
2021/05/02 04:14:17;;;;;;;36.77;24.50;;;3.90;99.90;;;;;;2090420;28;20182;-70
2021/05/02 04:15:18;;;;;;;33.28;23.00;;;4.00;99.90;;;;;;2090296;28;20209;-70
2021/05/02 04:16:19;;;;;;;31.35;22.77;;;4.00;99.90;;;;;;2090085;28;20194;-70
2021/05/02 04:17:19;;;;;;;33.37;24.33;;;4.00;99.90;;;;;;2090392;28;20653;-71
2021/05/02 04:18:32;;;;;;;35.77;23.80;;;4.00;99.90;;;;;;2090199;28;20239;-71
2021/05/02 04:19:47;;;;;;;32.45;22.17;;;4.00;99.90;;;;;;2090299;28;20523;-70
2021/05/02 04:20:48;;;;;;;38.60;24.25;;;4.00;99.90;;;;;;2090323;28;20198;-70
2021/05/02 04:21:49;;;;;;;34.17;23.93;;;4.00;99.90;;;;;;2089802;28;20274;-70
2021/05/02 04:22:50;;;;;;;33.30;24.13;;;4.00;99.90;;;;;;2089311;28;20209;-70
2021/05/02 04:23:51;;;;;;;39.97;26.40;;;4.00;99.90;;;;;;2089261;28;20177;-70
2021/05/02 04:24:52;;;;;;;37.65;26.05;;;4.00;99.90;;;;;;2090014;28;20543;-70
2021/05/02 04:25:53;;;;;;;35.77;25.80;;;4.00;99.90;;;;;;2089971;28;20202;-70
2021/05/02 04:26:56;;;;;;;33.60;24.23;;;4.00;99.90;;;;;;2090026;28;20640;-70
2021/05/02 04:27:57;;;;;;;33.75;24.55;;;4.00;99.90;;;;;;2089314;28;20186;-70
2021/05/02 04:28:57;;;;;;;37.80;25.70;;;4.00;99.90;;;;;;2089335;28;20343;-70
2021/05/02 04:29:58;;;;;;;36.87;25.97;;;3.90;99.90;;;;;;2097653;28;20184;-70
2021/05/02 04:30:59;;;;;;;39.58;26.73;;;3.90;99.90;;;;;;2097439;28;20169;-70
2021/05/02 04:32:01;;;;;;;34.60;24.20;;;3.90;99.90;;;;;;2097404;28;20174;-70
2021/05/02 04:33:02;;;;;;;38.30;26.77;;;3.90;99.90;;;;;;2089835;28;20196;-70
2021/05/02 04:34:06;;;;;;;40.10;27.00;;;3.90;99.90;;;;;;2090102;28;20188;-70
2021/05/02 04:35:08;;;;;;;35.17;25.95;;;3.90;99.90;;;;;;2089833;28;20180;-70
2021/05/02 04:36:09;;;;;;;31.45;24.33;;;4.00;99.90;;;;;;2089982;28;20194;-70
2021/05/02 04:37:09;;;;;;;33.10;24.43;;;3.90;99.90;;;;;;2089980;28;20591;-70
2021/05/02 04:38:10;;;;;;;35.97;25.23;;;3.90;99.90;;;;;;2089970;28;20585;-70
2021/05/02 04:39:11;;;;;;;37.50;27.27;;;3.90;99.90;;;;;;2089936;28;20169;-70
2021/05/02 04:40:12;;;;;;;34.47;25.83;;;3.80;99.90;;;;;;2090018;28;20269;-70
2021/05/02 04:41:12;;;;;;;36.37;26.87;;;3.80;99.90;;;;;;2089126;28;20173;-70
2021/05/02 04:42:13;;;;;;;39.07;26.30;;;3.90;99.90;;;;;;2089373;28;20227;-70
2021/05/02 04:43:14;;;;;;;38.20;26.00;;;3.80;99.90;;;;;;2089808;28;20256;-70
2021/05/02 04:44:15;;;;;;;38.27;27.53;;;3.80;99.90;;;;;;2090008;28;20169;-70
2021/05/02 04:45:16;;;;;;;37.90;27.83;;;3.80;99.90;;;;;;2089891;28;20173;-70
2021/05/02 04:46:17;;;;;;;39.23;28.10;;;3.80;99.90;;;;;;2089985;28;20173;-70
2021/05/02 04:47:19;;;;;;;39.05;27.85;;;3.80;99.90;;;;;;2089278;28;20178;-70
2021/05/02 04:48:20;;;;;;;36.63;26.88;;;3.80;99.90;;;;;;2097697;28;20193;-70
2021/05/02 04:49:22;;;;;;;37.70;27.37;;;3.80;99.90;;;;;;2097431;28;20168;-70
2021/05/02 04:50:23;;;;;;;34.72;25.50;;;3.80;99.90;;;;;;2081240;28;20181;-70
2021/05/02 04:51:23;;;;;;;33.90;24.67;;;3.80;99.90;;;;;;2089034;28;20812;-70
2021/05/02 04:52:24;;;;;;;35.57;25.40;;;3.70;99.90;;;;;;2089983;28;20182;-70
2021/05/02 04:53:25;;;;;;;36.87;27.53;;;3.70;99.90;;;;;;2089922;28;20256;-71
2021/05/02 04:54:25;;;;;;;33.70;25.77;;;3.70;99.90;;;;;;2089711;28;20182;-70
2021/05/02 04:55:27;;;;;;;33.73;25.90;;;3.80;99.90;;;;;;2088891;28;20231;-70
2021/05/02 04:56:27;;;;;;;36.28;26.33;;;3.80;99.90;;;;;;2089355;28;20189;-70
2021/05/02 04:57:31;;;;;;;29.90;23.53;;;3.80;99.90;;;;;;2089810;28;20673;-70
2021/05/02 04:58:32;;;;;;;33.10;24.17;;;3.70;99.90;;;;;;2089321;28;20172;-70
2021/05/02 04:59:33;;;;;;;30.93;24.13;;;3.70;99.90;;;;;;2089010;28;20193;-70
2021/05/02 05:00:34;;;;;;;32.30;25.17;;;3.70;99.90;;;;;;2089934;28;20182;-70
2021/05/02 05:01:37;;;;;;;35.45;26.65;;;3.60;99.90;;;;;;2089038;28;20235;-70
2021/05/02 05:02:38;;;;;;;31.35;24.13;;;3.60;99.90;;;;;;2081143;28;20216;-70
2021/05/02 05:03:40;;;;;;;35.43;24.80;;;3.60;99.90;;;;;;2089145;28;20177;-70
2021/05/02 05:04:41;;;;;;;36.42;26.33;;;3.60;99.90;;;;;;2089153;28;20188;-70
2021/05/02 05:05:41;;;;;;;37.30;27.00;;;3.70;99.90;;;;;;2088945;28;20696;-70
2021/05/02 05:06:42;;;;;;;33.17;26.17;;;3.70;99.90;;;;;;2089875;28;20241;-70
2021/05/02 05:07:43;;;;;;;31.33;24.27;;;3.70;99.90;;;;;;2089759;28;20175;-70
2021/05/02 05:08:43;;;;;;;35.60;26.27;;;3.70;99.90;;;;;;2089832;28;20180;-70
2021/05/02 05:09:44;;;;;;;31.80;23.87;;;3.80;99.90;;;;;;2089197;28;20190;-70
2021/05/02 05:10:45;;;;;;;34.00;25.20;;;3.80;99.90;;;;;;2089080;28;20653;-70
2021/05/02 05:11:45;;;;;;;32.03;23.87;;;3.80;99.90;;;;;;2089492;28;20677;-70
2021/05/02 05:12:46;;;;;;;33.67;24.50;;;3.80;99.90;;;;;;2089861;28;20185;-70
2021/05/02 05:13:48;;;;;;;34.77;25.43;;;3.90;99.90;;;;;;2089234;28;20329;-70
2021/05/02 05:14:48;;;;;;;27.65;22.90;;;3.90;99.90;;;;;;2080992;28;20193;-70
2021/05/02 05:15:49;;;;;;;27.80;21.73;;;3.90;99.90;;;;;;2089091;28;20209;-70
2021/05/02 05:16:50;;;;;;;28.00;20.90;;;3.90;99.90;;;;;;2089841;28;20183;-70
2021/05/02 05:17:50;;;;;;;24.93;20.27;;;4.00;99.90;;;;;;2089846;28;20579;-70
2021/05/02 05:18:51;;;;;;;26.90;20.60;;;3.90;99.90;;;;;;2089785;28;20264;-70
2021/05/02 05:19:52;;;;;;;27.20;21.37;;;3.90;99.90;;;;;;2089895;28;20202;-70
2021/05/02 05:20:54;;;;;;;25.77;20.97;;;3.90;99.90;;;;;;2089777;28;20666;-70
2021/05/02 05:21:55;;;;;;;25.83;21.17;;;3.90;99.90;;;;;;2097097;28;20644;-70
2021/05/02 05:22:56;;;;;;;25.97;21.03;;;3.90;99.90;;;;;;2097293;28;20290;-70
2021/05/02 05:23:56;;;;;;;28.00;19.60;;;3.90;99.90;;;;;;2089840;28;20211;-70
2021/05/02 05:24:58;;;;;;;31.73;24.13;;;4.00;99.90;;;;;;2089819;28;20742;-70
2021/05/02 05:25:59;;;;;;;28.85;23.25;;;4.00;99.90;;;;;;2089127;28;20743;-70